Time;durP1;ratioP1;P1;durP2;ratioP2;P2;SDS_P1;SDS_P2;PMS_P1;PMS_P2;Temp;Humidity;BMP_temperature;BMP_pressure;BME280_temperature;BME280_humidity;BME280_pressure;Samples;Min_cycle;Max_cycle;Signal;HPM_P1;HPM_P2
2021/07/28 00:01:57;;;;;;;2.27;2.17;;;25.30;57.80;;;;;;5107831;28;20195;-70
2021/07/28 00:04:28;;;;;;;2.77;2.57;;;25.30;57.70;;;;;;5100559;28;20798;-70
2021/07/28 00:06:59;;;;;;;2.10;2.00;;;25.30;57.70;;;;;;5105948;28;20205;-70
2021/07/28 00:09:32;;;;;;;2.00;1.90;;;25.30;57.70;;;;;;5110250;28;20211;-70
2021/07/28 00:12:04;;;;;;;2.33;2.17;;;25.30;57.70;;;;;;5103295;28;20199;-69
2021/07/28 00:14:35;;;;;;;2.63;2.43;;;25.30;57.70;;;;;;5105900;28;20218;-69
2021/07/28 00:17:09;;;;;;;2.60;2.40;;;25.30;57.70;;;;;;5101587;28;20201;-69
2021/07/28 00:25:12;;;;;;;2.57;2.37;;;25.30;57.70;;;;;;5105209;28;20201;-70
2021/07/28 00:27:43;;;;;;;2.43;2.20;;;25.20;57.70;;;;;;5111926;28;20634;-70
2021/07/28 00:30:19;;;;;;;2.17;2.07;;;25.20;57.70;;;;;;5100627;28;20589;-70
2021/07/28 00:32:47;;;;;;;2.40;2.20;;;25.20;57.70;;;;;;5109995;28;20683;-70
2021/07/28 00:35:18;;;;;;;2.67;2.47;;;25.20;57.70;;;;;;5102187;28;20220;-70
2021/07/28 00:37:47;;;;;;;2.30;2.10;;;25.20;57.70;;;;;;5101120;28;20485;-70
2021/07/28 00:40:19;;;;;;;2.33;2.20;;;25.20;57.70;;;;;;5098705;28;20197;-70
2021/07/28 00:42:48;;;;;;;1.93;1.80;;;25.20;57.60;;;;;;5105938;28;20204;-70
2021/07/28 00:45:17;;;;;;;2.23;2.13;;;25.30;57.70;;;;;;5104636;28;20196;-70
2021/07/28 00:47:48;;;;;;;2.40;2.20;;;25.20;57.70;;;;;;5108798;28;20204;-70
2021/07/28 00:50:17;;;;;;;2.40;2.20;;;25.20;57.70;;;;;;5105771;28;20556;-70
2021/07/28 00:52:48;;;;;;;2.03;1.90;;;25.20;57.70;;;;;;5091544;28;20273;-70
2021/07/28 00:55:20;;;;;;;2.43;2.23;;;25.20;57.70;;;;;;5106222;28;20543;-69
2021/07/28 00:57:49;;;;;;;1.97;1.87;;;25.20;57.70;;;;;;5107134;28;20203;-70
2021/07/28 01:00:22;;;;;;;2.30;2.20;;;25.20;57.70;;;;;;5104596;28;20256;-70
2021/07/28 01:02:52;;;;;;;2.20;2.10;;;25.20;57.70;;;;;;5099550;28;20239;-70
2021/07/28 01:05:22;;;;;;;2.40;2.20;;;25.20;57.70;;;;;;5107405;28;20218;-70
2021/07/28 01:07:51;;;;;;;2.50;2.30;;;25.20;57.70;;;;;;5101891;28;20201;-70
2021/07/28 01:10:22;;;;;;;2.30;2.20;;;25.20;57.70;;;;;;5108832;28;20197;-69
2021/07/28 01:12:55;;;;;;;2.10;2.00;;;25.20;57.70;;;;;;5104036;28;20209;-69
2021/07/28 01:15:32;;;;;;;2.37;2.17;;;25.20;57.70;;;;;;5108539;28;20207;-69
2021/07/28 01:18:04;;;;;;;2.40;2.20;;;25.20;57.70;;;;;;5108917;28;20200;-69
2021/07/28 01:20:42;;;;;;;2.53;2.33;;;25.20;57.70;;;;;;5108758;28;20211;-69
2021/07/28 01:23:25;;;;;;;2.20;2.00;;;25.10;57.70;;;;;;5109003;28;20188;-69
2021/07/28 01:26:03;;;;;;;2.43;2.23;;;25.20;57.70;;;;;;5120335;28;20292;-69
2021/07/28 01:28:38;;;;;;;2.40;2.20;;;25.10;57.60;;;;;;5125318;28;20218;-69
2021/07/28 01:31:14;;;;;;;2.77;2.57;;;25.20;57.70;;;;;;5113599;28;20208;-69
2021/07/28 01:33:47;;;;;;;2.17;2.07;;;25.20;57.70;;;;;;5117197;28;20216;-69
2021/07/28 01:36:21;;;;;;;2.43;2.23;;;25.10;57.60;;;;;;5113315;28;20289;-69
2021/07/28 01:38:52;;;;;;;2.50;2.30;;;25.10;57.70;;;;;;5116985;28;20279;-69
2021/07/28 01:41:23;;;;;;;2.03;1.93;;;25.10;57.60;;;;;;5101325;28;20513;-69
2021/07/28 01:43:53;;;;;;;2.50;2.33;;;25.10;57.70;;;;;;5106185;28;20918;-69
2021/07/28 01:46:24;;;;;;;2.10;2.00;;;25.10;57.70;;;;;;5105152;28;20341;-69
2021/07/28 01:48:57;;;;;;;2.50;2.30;;;25.10;57.70;;;;;;5106905;28;20203;-69
2021/07/28 01:51:27;;;;;;;2.40;2.20;;;25.10;57.70;;;;;;5102900;28;20211;-70
2021/07/28 01:53:58;;;;;;;1.83;1.73;;;25.10;57.70;;;;;;5103562;28;20236;-70
2021/07/28 01:56:42;;;;;;;2.07;1.97;;;25.10;57.70;;;;;;5105840;28;20214;-70
2021/07/28 01:59:14;;;;;;;2.30;2.10;;;25.10;57.70;;;;;;5099526;28;20208;-70
2021/07/28 02:01:45;;;;;;;1.90;1.80;;;25.10;57.70;;;;;;5108801;28;20249;-70
2021/07/28 02:04:16;;;;;;;2.10;1.90;;;25.00;57.70;;;;;;5102023;28;20209;-70
2021/07/28 02:06:46;;;;;;;2.50;2.30;;;25.10;57.70;;;;;;5105095;28;20204;-70
2021/07/28 02:09:15;;;;;;;2.70;2.50;;;25.10;57.70;;;;;;5096662;28;20577;-70
2021/07/28 02:11:45;;;;;;;2.23;2.13;;;25.00;57.60;;;;;;5110119;28;20197;-70
2021/07/28 02:14:15;;;;;;;2.50;2.30;;;25.10;57.70;;;;;;5098682;28;20302;-70
2021/07/28 02:16:46;;;;;;;2.47;2.33;;;25.10;57.70;;;;;;5102763;28;20205;-70
2021/07/28 02:19:19;;;;;;;2.67;2.47;;;25.00;57.70;;;;;;5096212;28;20193;-69
2021/07/28 02:21:50;;;;;;;2.17;2.07;;;25.00;57.70;;;;;;5096813;28;20283;-70
2021/07/28 02:24:21;;;;;;;2.23;2.13;;;25.00;57.70;;;;;;5104217;28;20228;-69
2021/07/28 02:26:57;;;;;;;2.40;2.20;;;25.00;57.60;;;;;;5104322;28;20211;-69
2021/07/28 02:29:30;;;;;;;2.53;2.33;;;25.00;57.70;;;;;;5099781;28;20207;-69
2021/07/28 02:32:02;;;;;;;2.50;2.30;;;25.00;57.70;;;;;;5097870;28;20280;-70
2021/07/28 02:34:34;;;;;;;2.20;2.10;;;25.00;57.60;;;;;;5088367;28;20229;-69
2021/07/28 02:37:03;;;;;;;2.30;2.20;;;25.00;57.60;;;;;;5097898;28;20232;-69
2021/07/28 02:39:36;;;;;;;2.50;2.30;;;25.00;57.70;;;;;;5109621;28;20195;-70
2021/07/28 02:42:05;;;;;;;2.53;2.33;;;25.00;57.70;;;;;;5101335;28;20693;-69
2021/07/28 02:44:34;;;;;;;2.27;2.07;;;25.00;57.70;;;;;;5107271;28;20196;-69
2021/07/28 02:47:03;;;;;;;2.30;2.10;;;24.90;57.70;;;;;;5103402;28;20645;-69
2021/07/28 02:49:33;;;;;;;2.40;2.20;;;25.00;57.70;;;;;;5106424;28;20212;-69
2021/07/28 02:52:06;;;;;;;2.33;2.13;;;25.00;57.60;;;;;;5095565;28;20627;-69
2021/07/28 02:54:36;;;;;;;2.43;2.23;;;25.00;57.70;;;;;;5102577;28;20214;-69
2021/07/28 02:57:07;;;;;;;2.73;2.53;;;25.00;57.60;;;;;;5099480;28;20200;-69
2021/07/28 02:59:36;;;;;;;2.07;1.97;;;25.00;57.70;;;;;;5107162;28;20205;-69
2021/07/28 03:02:07;;;;;;;2.90;2.70;;;25.00;57.60;;;;;;5100621;28;20197;-69
2021/07/28 03:04:40;;;;;;;2.30;2.20;;;24.90;57.60;;;;;;5099307;28;20212;-70
2021/07/28 03:07:09;;;;;;;2.67;2.47;;;25.00;57.60;;;;;;5096051;28;20221;-70
2021/07/28 03:09:37;;;;;;;2.57;2.37;;;25.00;57.60;;;;;;5100918;28;20214;-70
2021/07/28 03:12:09;;;;;;;2.13;2.03;;;25.00;57.60;;;;;;5097018;28;20662;-69
2021/07/28 03:14:39;;;;;;;2.77;2.57;;;24.90;57.60;;;;;;5102531;28;20297;-69
2021/07/28 03:17:08;;;;;;;2.60;2.40;;;24.90;57.60;;;;;;5107083;28;20195;-69
2021/07/28 03:19:36;;;;;;;2.37;2.20;;;24.90;57.60;;;;;;5098621;28;20196;-69
2021/07/28 03:22:05;;;;;;;2.50;2.30;;;24.90;57.60;;;;;;5091243;28;20267;-70
2021/07/28 03:24:36;;;;;;;2.30;2.10;;;24.90;57.60;;;;;;5099937;28;20219;-70
2021/07/28 03:27:08;;;;;;;2.30;2.10;;;24.90;57.70;;;;;;5104010;28;20270;-69
2021/07/28 03:29:39;;;;;;;2.50;2.30;;;24.90;57.60;;;;;;5099064;28;20200;-69
2021/07/28 03:32:07;;;;;;;2.10;2.00;;;24.90;57.60;;;;;;5103568;28;20204;-69
2021/07/28 03:34:38;;;;;;;2.03;1.93;;;24.90;57.60;;;;;;5094251;28;20587;-70
2021/07/28 03:37:07;;;;;;;2.50;2.30;;;24.90;57.60;;;;;;5102752;28;20314;-69
2021/07/28 03:39:37;;;;;;;2.40;2.20;;;24.90;57.60;;;;;;5093606;28;20181;-69
2021/07/28 03:42:12;;;;;;;2.60;2.40;;;24.90;57.60;;;;;;5103791;28;20223;-70
2021/07/28 03:44:48;;;;;;;2.60;2.40;;;24.90;57.60;;;;;;5100900;28;20197;-70
2021/07/28 03:47:18;;;;;;;2.70;2.50;;;24.90;57.60;;;;;;5097715;28;20203;-70
2021/07/28 03:49:50;;;;;;;2.63;2.43;;;24.90;57.70;;;;;;5088331;28;20203;-70
2021/07/28 03:52:22;;;;;;;2.57;2.37;;;24.90;57.60;;;;;;5095798;28;20286;-70
2021/07/28 03:54:52;;;;;;;2.43;2.23;;;24.90;57.60;;;;;;5091560;28;20256;-69
2021/07/28 03:57:22;;;;;;;2.47;2.27;;;24.90;57.60;;;;;;5102207;28;20197;-69
2021/07/28 03:59:55;;;;;;;2.27;2.10;;;24.80;57.60;;;;;;5107459;28;20211;-69
2021/07/28 04:02:24;;;;;;;2.17;2.00;;;24.80;57.60;;;;;;5110031;28;20275;-69
2021/07/28 04:05:02;;;;;;;2.60;2.40;;;24.80;57.60;;;;;;5104024;28;20281;-69
2021/07/28 04:07:59;;;;;;;2.53;2.33;;;24.80;57.50;;;;;;5103984;28;20201;-70
2021/07/28 04:10:31;;;;;;;2.50;2.30;;;24.90;57.60;;;;;;5100934;28;20211;-69
2021/07/28 04:13:02;;;;;;;2.60;2.40;;;24.80;57.50;;;;;;5103621;28;20257;-69
2021/07/28 04:15:31;;;;;;;3.20;2.90;;;24.80;57.60;;;;;;5099535;28;20258;-70
2021/07/28 04:18:05;;;;;;;2.47;2.20;;;24.80;57.60;;;;;;5107428;28;20335;-70
2021/07/28 04:20:37;;;;;;;2.63;2.43;;;24.80;57.50;;;;;;5100851;28;20238;-70
2021/07/28 04:23:08;;;;;;;2.87;2.67;;;24.80;57.40;;;;;;5107435;28;20557;-69
2021/07/28 04:25:41;;;;;;;3.00;2.43;;;24.80;57.40;;;;;;5098201;28;20793;-69
2021/07/28 04:28:10;;;;;;;2.80;2.60;;;24.80;57.40;;;;;;5092618;28;20813;-69
2021/07/28 04:30:44;;;;;;;2.60;2.40;;;24.80;57.40;;;;;;5098975;28;20608;-69
2021/07/28 04:33:24;;;;;;;2.60;2.40;;;24.80;57.40;;;;;;5099931;28;20224;-69
2021/07/28 04:35:55;;;;;;;2.97;2.77;;;24.80;57.40;;;;;;5099719;28;20318;-70
2021/07/28 04:38:26;;;;;;;2.30;2.20;;;24.80;57.40;;;;;;5103574;28;20189;-70
2021/07/28 04:40:58;;;;;;;2.60;2.40;;;24.80;57.30;;;;;;5106120;28;20323;-69
2021/07/28 04:43:27;;;;;;;2.83;2.63;;;24.80;57.30;;;;;;5107834;28;20208;-70
2021/07/28 04:46:00;;;;;;;2.90;2.70;;;24.80;57.30;;;;;;5100504;28;20225;-69
2021/07/28 04:48:44;;;;;;;3.13;2.90;;;24.70;57.20;;;;;;5101823;28;20279;-70
2021/07/28 04:51:12;;;;;;;2.90;2.70;;;24.80;57.20;;;;;;5098390;28;20219;-70
2021/07/28 04:53:45;;;;;;;4.03;2.70;;;24.70;57.20;;;;;;5106042;28;20213;-69
2021/07/28 04:56:14;;;;;;;2.60;2.40;;;24.80;57.20;;;;;;5109141;28;20196;-69
2021/07/28 04:58:46;;;;;;;2.70;2.50;;;24.80;57.30;;;;;;5103298;28;20196;-70
2021/07/28 05:01:16;;;;;;;3.57;2.40;;;24.70;57.20;;;;;;5106244;28;20203;-70
2021/07/28 05:03:46;;;;;;;2.93;2.73;;;24.70;57.20;;;;;;5094366;28;20219;-69
2021/07/28 05:06:15;;;;;;;2.23;2.13;;;24.70;57.30;;;;;;5097629;28;20212;-69
2021/07/28 05:08:44;;;;;;;2.63;2.43;;;24.70;57.20;;;;;;5102335;28;20204;-69
2021/07/28 05:11:14;;;;;;;2.50;2.30;;;24.70;57.20;;;;;;5107087;28;20677;-69
2021/07/28 05:13:44;;;;;;;3.00;2.80;;;24.70;57.20;;;;;;5094228;28;20556;-69
2021/07/28 05:16:19;;;;;;;2.77;2.57;;;24.70;57.10;;;;;;5103107;28;20242;-69
2021/07/28 05:18:50;;;;;;;2.90;2.70;;;24.70;57.20;;;;;;5095485;28;20247;-69
2021/07/28 05:21:21;;;;;;;3.03;2.80;;;24.70;57.10;;;;;;5105155;28;20208;-69
2021/07/28 05:23:52;;;;;;;2.70;2.50;;;24.70;57.10;;;;;;5109367;28;20203;-69
2021/07/28 05:26:36;;;;;;;2.73;2.53;;;24.70;57.10;;;;;;5101833;28;20311;-69
2021/07/28 05:29:09;;;;;;;2.87;2.67;;;24.70;57.10;;;;;;5109816;28;20208;-70
2021/07/28 05:31:50;;;;;;;2.80;2.60;;;24.70;57.10;;;;;;5102673;28;20703;-70
2021/07/28 05:34:22;;;;;;;2.90;2.70;;;24.70;57.10;;;;;;5109174;28;20309;-69
2021/07/28 05:36:52;;;;;;;3.10;2.90;;;24.70;57.10;;;;;;5108348;28;20228;-69
2021/07/28 05:39:20;;;;;;;2.97;2.77;;;24.70;57.20;;;;;;5105691;28;20226;-70
2021/07/28 05:41:50;;;;;;;3.00;2.70;;;24.70;57.10;;;;;;5106322;28;20514;-70
2021/07/28 05:44:22;;;;;;;2.90;2.70;;;24.70;57.10;;;;;;5100396;28;20387;-70
2021/07/28 05:46:52;;;;;;;2.60;2.40;;;24.70;57.10;;;;;;5110995;28;20649;-70
2021/07/28 05:49:23;;;;;;;2.73;2.53;;;24.70;57.00;;;;;;5119142;28;20260;-70
2021/07/28 05:52:16;;;;;;;3.03;2.83;;;24.70;57.10;;;;;;5130586;28;20258;-69
2021/07/28 05:54:45;;;;;;;2.50;2.30;;;24.70;57.10;;;;;;5129081;28;20238;-69
2021/07/28 05:57:15;;;;;;;2.57;2.37;;;24.70;57.10;;;;;;5101678;28;20212;-69
2021/07/28 05:59:49;;;;;;;3.00;2.80;;;24.70;57.10;;;;;;5098401;28;20749;-69
2021/07/28 06:02:23;;;;;;;3.33;3.07;;;24.70;57.10;;;;;;5106705;28;20188;-69
2021/07/28 06:04:51;;;;;;;3.17;2.50;;;24.70;57.10;;;;;;5101406;28;20202;-70
2021/07/28 06:07:23;;;;;;;2.80;2.47;;;24.70;57.10;;;;;;5107267;28;20209;-70
2021/07/28 06:09:57;;;;;;;3.37;3.07;;;24.70;57.10;;;;;;5089736;28;20223;-69
2021/07/28 06:12:25;;;;;;;2.80;2.60;;;24.70;57.10;;;;;;5099338;28;20200;-70
2021/07/28 06:14:55;;;;;;;2.93;2.73;;;24.70;57.10;;;;;;5099559;28;20204;-70
2021/07/28 06:17:27;;;;;;;3.50;3.20;;;24.70;57.10;;;;;;5103748;28;20235;-70
2021/07/28 06:19:59;;;;;;;2.83;2.63;;;24.70;57.10;;;;;;5107480;28;20675;-70
2021/07/28 06:22:28;;;;;;;2.80;2.60;;;24.70;57.10;;;;;;5103126;28;20215;-70
2021/07/28 06:24:57;;;;;;;2.90;2.70;;;24.70;57.10;;;;;;5107067;28;20250;-70
2021/07/28 06:27:27;;;;;;;3.00;2.80;;;24.70;57.40;;;;;;5098267;28;20206;-70
2021/07/28 06:29:58;;;;;;;3.10;2.90;;;24.70;57.10;;;;;;5093969;28;20227;-70
2021/07/28 06:32:28;;;;;;;3.20;2.83;;;24.70;57.00;;;;;;5096449;28;20212;-70
2021/07/28 06:35:00;;;;;;;2.70;2.50;;;24.70;57.00;;;;;;5085066;28;20305;-70
2021/07/28 06:37:30;;;;;;;3.00;2.70;;;24.70;57.00;;;;;;5099134;28;20224;-70
2021/07/28 06:40:06;;;;;;;2.50;2.30;;;24.70;57.00;;;;;;5107510;28;20835;-70
2021/07/28 06:42:36;;;;;;;2.77;2.57;;;24.70;57.00;;;;;;5101387;28;20215;-70
2021/07/28 06:45:11;;;;;;;2.90;2.70;;;24.70;57.10;;;;;;5105844;28;20284;-70
2021/07/28 06:47:41;;;;;;;2.90;2.70;;;24.70;57.00;;;;;;5095527;28;20556;-69
2021/07/28 06:50:12;;;;;;;2.93;2.63;;;24.70;57.00;;;;;;5101656;28;20622;-70
2021/07/28 06:52:42;;;;;;;2.53;2.33;;;24.70;57.00;;;;;;5097503;28;20213;-70
2021/07/28 06:55:10;;;;;;;2.80;2.60;;;24.70;57.00;;;;;;5098204;28;20580;-70
2021/07/28 06:57:39;;;;;;;3.10;2.80;;;24.70;57.00;;;;;;5108390;28;20276;-70
2021/07/28 07:00:19;;;;;;;2.77;2.57;;;24.70;57.00;;;;;;5095628;28;20200;-70
2021/07/28 07:02:55;;;;;;;2.83;2.63;;;24.70;57.00;;;;;;5107937;28;20264;-70
2021/07/28 07:05:29;;;;;;;3.27;2.97;;;24.70;57.00;;;;;;5099509;28;20199;-70
2021/07/28 07:08:01;;;;;;;2.83;2.63;;;24.70;57.00;;;;;;5106810;28;20219;-70
2021/07/28 07:10:32;;;;;;;2.37;2.27;;;24.80;57.00;;;;;;5097731;28;20208;-70
2021/07/28 07:13:05;;;;;;;2.83;2.63;;;24.70;57.00;;;;;;5108035;28;20211;-70
2021/07/28 07:15:36;;;;;;;3.77;2.70;;;24.70;56.90;;;;;;5100388;28;20219;-71
2021/07/28 07:18:08;;;;;;;2.80;2.60;;;24.70;57.00;;;;;;5101489;28;20196;-70
2021/07/28 07:20:40;;;;;;;2.90;2.70;;;24.70;57.00;;;;;;5103712;28;20862;-69
2021/07/28 07:23:12;;;;;;;2.50;2.30;;;24.70;57.00;;;;;;5099662;28;20189;-70
2021/07/28 07:25:41;;;;;;;2.20;2.10;;;24.70;57.00;;;;;;5107749;28;20194;-70
2021/07/28 07:28:11;;;;;;;2.70;2.50;;;24.80;57.00;;;;;;5102724;28;20216;-70
2021/07/28 07:30:41;;;;;;;3.40;3.10;;;24.70;56.90;;;;;;5090582;28;20188;-70
2021/07/28 07:36:03;;;;;;;2.60;2.40;;;24.80;57.00;;;;;;5096402;28;20217;-70
2021/07/28 07:38:32;;;;;;;2.90;2.60;;;24.70;57.00;;;;;;5098727;28;20835;-70
2021/07/28 07:41:02;;;;;;;2.93;2.73;;;24.70;56.90;;;;;;5100807;28;20219;-70
2021/07/28 07:43:30;;;;;;;3.13;2.87;;;24.80;57.00;;;;;;5100617;28;20203;-70
2021/07/28 07:45:58;;;;;;;2.37;2.27;;;24.70;57.60;;;;;;5089432;28;20200;-70
2021/07/28 07:48:30;;;;;;;2.80;2.53;;;24.70;56.90;;;;;;5098996;28;20246;-71
2021/07/28 07:51:00;;;;;;;3.50;2.90;;;24.80;57.00;;;;;;5100165;28;20242;-70
2021/07/28 07:53:33;;;;;;;2.77;2.57;;;24.70;57.00;;;;;;5105763;28;20478;-70
2021/07/28 07:56:05;;;;;;;2.60;2.40;;;24.70;56.90;;;;;;5099049;28;20217;-70
2021/07/28 07:58:37;;;;;;;2.83;2.63;;;24.70;56.90;;;;;;5107078;28;20184;-70
2021/07/28 08:01:12;;;;;;;3.10;2.90;;;24.70;56.90;;;;;;5098282;28;20198;-70
2021/07/28 08:03:47;;;;;;;2.90;2.70;;;24.70;56.90;;;;;;5104828;28;20200;-70
2021/07/28 08:06:21;;;;;;;3.07;2.77;;;24.80;57.00;;;;;;5101295;28;20201;-71
2021/07/28 08:08:51;;;;;;;2.83;2.63;;;24.80;57.00;;;;;;5095145;28;20246;-71
2021/07/28 08:11:23;;;;;;;2.90;2.60;;;24.80;57.00;;;;;;5104666;28;20208;-70
2021/07/28 08:13:55;;;;;;;2.70;2.50;;;24.80;57.00;;;;;;5105504;28;20204;-70
2021/07/28 08:16:25;;;;;;;2.80;2.60;;;24.80;57.00;;;;;;5095555;28;20201;-71
2021/07/28 08:18:55;;;;;;;2.53;2.33;;;24.80;57.00;;;;;;5106919;28;20215;-71
2021/07/28 08:21:25;;;;;;;2.87;2.60;;;24.80;57.00;;;;;;5105317;28;20504;-70
2021/07/28 08:23:54;;;;;;;2.87;2.57;;;24.70;56.80;;;;;;5103287;28;20220;-70
2021/07/28 08:26:26;;;;;;;2.47;2.23;;;24.70;56.90;;;;;;5105101;28;20228;-70
2021/07/28 08:28:58;;;;;;;3.03;2.73;;;24.80;57.00;;;;;;5102864;28;20208;-70
2021/07/28 08:31:29;;;;;;;2.60;2.40;;;24.80;57.00;;;;;;5104273;28;20212;-70
2021/07/28 08:33:59;;;;;;;2.70;2.47;;;24.70;57.00;;;;;;5098472;28;20189;-70
2021/07/28 08:36:30;;;;;;;2.97;2.77;;;24.80;57.00;;;;;;5111205;28;20254;-70
2021/07/28 08:39:00;;;;;;;3.90;2.30;;;24.80;57.00;;;;;;5105807;28;20192;-70
2021/07/28 08:41:35;;;;;;;2.53;2.33;;;24.80;57.00;;;;;;5108132;28;20275;-70
2021/07/28 08:44:06;;;;;;;2.50;2.30;;;24.80;57.00;;;;;;5101926;28;20211;-71
2021/07/28 08:46:39;;;;;;;3.67;3.17;;;24.80;57.00;;;;;;5100386;28;20804;-71
2021/07/28 08:49:24;;;;;;;3.10;2.57;;;24.80;57.00;;;;;;5089189;28;20191;-70
2021/07/28 08:51:53;;;;;;;2.97;2.67;;;24.80;57.70;;;;;;5106750;28;20207;-70
2021/07/28 08:54:21;;;;;;;2.83;2.63;;;24.80;57.10;;;;;;5077290;28;20808;-70
2021/07/28 08:56:54;;;;;;;3.13;2.77;;;24.80;57.10;;;;;;5088078;28;20209;-70
2021/07/28 08:59:47;;;;;;;2.60;2.40;;;24.80;57.10;;;;;;5120311;27;20257;-70
2021/07/28 09:02:17;;;;;;;2.87;2.67;;;24.80;57.10;;;;;;5120245;27;20274;-70
2021/07/28 09:04:53;;;;;;;2.40;2.20;;;24.80;57.10;;;;;;5095508;28;20204;-70
2021/07/28 09:07:25;;;;;;;2.97;2.77;;;24.80;57.10;;;;;;5087165;28;20201;-70
2021/07/28 09:09:59;;;;;;;2.60;2.40;;;24.80;57.10;;;;;;5107087;28;20205;-70
2021/07/28 09:12:36;;;;;;;2.90;2.37;;;24.80;57.20;;;;;;5101432;28;20203;-70
2021/07/28 09:15:15;;;;;;;2.60;2.40;;;24.80;57.10;;;;;;5107410;28;20232;-70
2021/07/28 09:17:49;;;;;;;2.63;2.43;;;24.80;57.10;;;;;;5104663;28;20284;-70
2021/07/28 09:20:25;;;;;;;2.47;2.27;;;24.80;57.10;;;;;;5107178;28;20193;-70
2021/07/28 09:23:11;;;;;;;2.67;2.23;;;24.90;57.10;;;;;;5088850;28;20672;-70
2021/07/28 09:25:42;;;;;;;2.93;2.73;;;24.90;57.10;;;;;;5104162;28;20196;-70
2021/07/28 09:28:24;;;;;;;2.30;2.07;;;24.80;57.00;;;;;;5098131;28;20208;-70
2021/07/28 09:30:58;;;;;;;3.10;2.80;;;24.90;57.00;;;;;;5104269;28;20200;-70
2021/07/28 09:33:29;;;;;;;3.23;2.70;;;24.90;57.00;;;;;;5107153;28;20257;-70
2021/07/28 09:36:17;;;;;;;2.60;2.40;;;24.90;57.00;;;;;;5104208;28;20773;-70
2021/07/28 09:38:48;;;;;;;2.87;2.60;;;24.90;57.10;;;;;;5096665;28;20705;-70
2021/07/28 09:41:27;;;;;;;2.73;2.50;;;24.90;57.10;;;;;;5091951;28;20241;-70
2021/07/28 09:44:02;;;;;;;2.97;2.67;;;24.90;57.00;;;;;;5104926;28;20200;-70
2021/07/28 09:46:38;;;;;;;2.40;2.20;;;24.90;57.00;;;;;;5105288;28;20212;-71
2021/07/28 09:49:18;;;;;;;2.83;2.40;;;24.90;57.00;;;;;;5097659;28;20722;-71
2021/07/28 09:52:32;;;;;;;2.60;2.40;;;24.90;57.00;;;;;;5085572;28;20311;-71
2021/07/28 09:55:32;;;;;;;3.40;2.63;;;24.90;57.10;;;;;;5104083;28;20212;-70
2021/07/28 09:58:04;;;;;;;3.17;2.40;;;24.90;57.10;;;;;;5100969;28;20216;-70
2021/07/28 10:00:37;;;;;;;2.40;2.20;;;24.90;57.10;;;;;;5096992;28;20574;-70
2021/07/28 10:03:08;;;;;;;2.37;2.27;;;24.90;57.10;;;;;;5102676;28;20205;-70
2021/07/28 10:05:52;;;;;;;2.00;1.90;;;25.00;57.10;;;;;;5083325;28;20207;-71
2021/07/28 10:08:24;;;;;;;2.60;2.40;;;25.00;57.10;;;;;;5122050;27;20192;-70
2021/07/28 10:10:59;;;;;;;2.33;1.90;;;25.00;57.10;;;;;;5106623;28;20208;-70
2021/07/28 10:13:31;;;;;;;2.23;2.03;;;25.00;57.10;;;;;;5104137;28;20195;-70
2021/07/28 10:16:01;;;;;;;2.10;2.00;;;25.00;57.10;;;;;;5105076;28;20212;-70
2021/07/28 10:18:34;;;;;;;1.90;1.70;;;25.00;57.20;;;;;;5105991;28;20193;-70
2021/07/28 10:21:04;;;;;;;1.73;1.63;;;25.00;57.10;;;;;;5106342;28;20228;-71
2021/07/28 10:23:38;;;;;;;1.90;1.80;;;25.00;57.10;;;;;;5104782;28;20211;-71
2021/07/28 10:26:07;;;;;;;1.90;1.80;;;25.00;57.10;;;;;;5104988;28;20201;-71
2021/07/28 10:28:35;;;;;;;2.93;2.10;;;25.00;57.10;;;;;;5104643;28;20319;-71
2021/07/28 10:31:21;;;;;;;2.10;1.90;;;25.00;57.10;;;;;;5096347;28;20211;-70
2021/07/28 10:33:55;;;;;;;3.47;2.00;;;25.00;57.10;;;;;;5107617;28;20277;-70
2021/07/28 10:36:47;;;;;;;2.00;1.70;;;25.00;57.10;;;;;;5097632;28;20224;-71
2021/07/28 10:39:40;;;;;;;1.97;1.80;;;25.10;57.20;;;;;;5091106;28;20208;-70
2021/07/28 10:42:28;;;;;;;1.87;1.73;;;25.00;57.10;;;;;;5098951;28;20204;-70
2021/07/28 10:45:06;;;;;;;2.10;1.83;;;25.10;57.10;;;;;;5100133;28;20255;-70
2021/07/28 10:47:57;;;;;;;2.13;1.93;;;25.10;57.20;;;;;;5107436;28;20274;-70
2021/07/28 10:50:33;;;;;;;2.20;2.07;;;25.10;57.10;;;;;;5100014;28;20626;-71
2021/07/28 10:53:05;;;;;;;1.77;1.67;;;25.10;57.20;;;;;;5106879;28;20215;-71
2021/07/28 10:55:37;;;;;;;2.00;1.77;;;25.10;57.10;;;;;;5104729;28;20208;-71
2021/07/28 10:58:26;;;;;;;2.10;2.00;;;25.20;57.20;;;;;;5095718;28;20535;-70
2021/07/28 11:00:55;;;;;;;1.80;1.70;;;25.20;57.30;;;;;;5101209;28;20192;-71
2021/07/28 11:03:35;;;;;;;1.93;1.80;;;25.10;57.10;;;;;;5108027;28;20196;-71
2021/07/28 11:06:18;;;;;;;1.70;1.60;;;25.10;57.20;;;;;;5100552;28;20657;-71
2021/07/28 11:08:50;;;;;;;2.00;1.80;;;25.20;57.20;;;;;;5101446;28;20721;-71
2021/07/28 11:11:29;;;;;;;1.77;1.67;;;25.20;57.20;;;;;;5107753;28;20223;-71
2021/07/28 11:14:06;;;;;;;2.40;2.00;;;25.20;57.20;;;;;;5104679;28;20591;-71
2021/07/28 11:16:34;;;;;;;1.70;1.60;;;25.20;57.20;;;;;;5098641;28;20209;-71
2021/07/28 11:19:07;;;;;;;1.90;1.70;;;25.20;57.20;;;;;;5104277;28;20196;-70
2021/07/28 11:21:36;;;;;;;3.30;2.20;;;25.20;57.20;;;;;;5118988;28;20197;-71
2021/07/28 11:24:10;;;;;;;2.10;1.80;;;25.20;57.10;;;;;;5115530;28;20211;-71
2021/07/28 11:26:41;;;;;;;2.37;1.70;;;25.20;57.10;;;;;;5118155;28;20363;-71
2021/07/28 11:29:16;;;;;;;1.60;1.50;;;25.20;57.10;;;;;;5123179;28;20204;-71
2021/07/28 11:31:56;;;;;;;2.60;1.83;;;25.20;57.10;;;;;;5110576;28;20220;-70
2021/07/28 11:34:58;;;;;;;2.60;1.73;;;25.30;57.10;;;;;;5127536;28;20184;-70
2021/07/28 11:37:26;;;;;;;1.93;1.83;;;25.30;57.10;;;;;;5096791;28;20229;-71
2021/07/28 11:39:55;;;;;;;1.63;1.50;;;25.30;57.10;;;;;;5108933;28;20605;-71
2021/07/28 11:42:28;;;;;;;1.83;1.70;;;25.30;57.10;;;;;;5100829;28;20615;-71
2021/07/28 11:44:59;;;;;;;2.60;1.50;;;25.30;57.10;;;;;;5104926;28;20215;-71
2021/07/28 11:47:28;;;;;;;1.67;1.53;;;25.30;57.10;;;;;;5102850;28;20642;-70
2021/07/28 11:50:05;;;;;;;1.93;1.73;;;25.40;57.10;;;;;;5105552;28;20202;-70
2021/07/28 11:52:52;;;;;;;1.73;1.60;;;25.40;57.10;;;;;;5105128;28;20199;-70
2021/07/28 11:55:24;;;;;;;1.90;1.70;;;25.40;57.10;;;;;;5109785;28;20290;-71
2021/07/28 11:57:53;;;;;;;2.43;1.53;;;25.40;57.10;;;;;;5091162;28;20204;-71
2021/07/28 12:00:39;;;;;;;2.23;1.37;;;25.40;57.10;;;;;;5107389;28;20199;-71
2021/07/28 12:03:30;;;;;;;1.70;1.60;;;25.40;57.10;;;;;;5109580;28;20269;-71
2021/07/28 12:06:06;;;;;;;2.60;1.60;;;25.40;57.00;;;;;;5101423;28;20219;-71
2021/07/28 12:08:48;;;;;;;1.70;1.60;;;25.40;57.00;;;;;;5105175;28;20698;-71
2021/07/28 12:11:15;;;;;;;1.93;1.70;;;25.40;57.10;;;;;;5105175;28;20741;-71
2021/07/28 12:13:48;;;;;;;2.57;1.80;;;25.40;57.00;;;;;;5112204;28;20192;-71
2021/07/28 12:16:19;;;;;;;1.50;1.40;;;25.40;57.00;;;;;;5097628;28;20220;-71
2021/07/28 12:18:50;;;;;;;1.70;1.57;;;25.50;57.10;;;;;;5105243;28;20239;-71
2021/07/28 12:21:19;;;;;;;1.60;1.30;;;25.50;57.10;;;;;;5104538;28;20189;-71
2021/07/28 12:23:52;;;;;;;1.77;1.53;;;25.50;57.20;;;;;;5107782;28;20258;-71
2021/07/28 12:26:49;;;;;;;1.87;1.40;;;25.50;57.10;;;;;;5101274;28;20896;-71
2021/07/28 12:29:37;;;;;;;5.17;1.60;;;25.50;57.10;;;;;;5106233;28;20279;-71
2021/07/28 12:32:16;;;;;;;1.53;1.43;;;25.50;57.10;;;;;;5100945;28;20309;-71
2021/07/28 12:34:47;;;;;;;1.70;1.60;;;25.50;57.10;;;;;;5105541;28;20212;-71
2021/07/28 12:37:22;;;;;;;1.97;1.80;;;25.50;57.10;;;;;;5098109;28;20232;-71
2021/07/28 12:40:08;;;;;;;1.90;1.50;;;25.60;57.30;;;;;;5111302;27;20204;-71
2021/07/28 12:42:45;;;;;;;2.07;1.80;;;25.60;57.20;;;;;;5102366;28;20204;-71
2021/07/28 12:45:13;;;;;;;2.70;1.70;;;25.60;57.20;;;;;;5111409;28;20200;-71
2021/07/28 12:47:43;;;;;;;1.50;1.40;;;25.60;57.20;;;;;;5099349;28;20217;-71
2021/07/28 12:50:16;;;;;;;1.93;1.50;;;25.60;57.10;;;;;;5108864;28;20275;-71
2021/07/28 12:52:46;;;;;;;1.70;1.40;;;25.60;57.30;;;;;;5097736;28;20528;-71
2021/07/28 12:55:14;;;;;;;1.57;1.40;;;25.60;57.20;;;;;;5098502;28;20207;-71
2021/07/28 12:57:45;;;;;;;2.07;1.67;;;25.60;57.20;;;;;;5077253;28;20212;-71
2021/07/28 13:00:14;;;;;;;1.80;1.53;;;25.60;57.30;;;;;;5104249;28;20224;-71
2021/07/28 13:02:43;;;;;;;1.70;1.60;;;25.60;57.30;;;;;;5104659;28;20207;-71
2021/07/28 13:05:17;;;;;;;2.23;2.03;;;25.70;57.30;;;;;;5101896;28;20203;-70
2021/07/28 13:07:58;;;;;;;1.90;1.30;;;25.70;57.40;;;;;;5104845;28;20198;-71
2021/07/28 13:10:29;;;;;;;2.90;1.50;;;25.70;57.20;;;;;;5109134;28;20812;-71
2021/07/28 13:13:00;;;;;;;1.53;1.43;;;25.70;57.30;;;;;;5123432;27;20209;-71
2021/07/28 13:15:29;;;;;;;2.73;1.50;;;25.70;57.30;;;;;;5108938;28;20677;-71
2021/07/28 13:18:00;;;;;;;1.50;1.40;;;25.70;57.40;;;;;;5101399;28;20601;-71
2021/07/28 13:20:29;;;;;;;1.60;1.50;;;25.70;57.40;;;;;;5103309;28;20189;-71
2021/07/28 13:23:04;;;;;;;2.13;1.57;;;25.70;57.30;;;;;;5100772;28;20197;-71
2021/07/28 13:25:37;;;;;;;1.50;1.40;;;25.70;57.20;;;;;;5101560;28;20200;-71
2021/07/28 13:28:07;;;;;;;2.73;1.47;;;25.80;57.40;;;;;;5107606;28;20212;-71